Time;durP1;ratioP1;P1;durP2;ratioP2;P2;SDS_P1;SDS_P2;PMS_P1;PMS_P2;Temp;Humidity;BMP_temperature;BMP_pressure;BME280_temperature;BME280_humidity;BME280_pressure;Samples;Min_cycle;Max_cycle;Signal;HPM_P1;HPM_P2
2022/11/15 00:00:16;;;;;;;25.08;19.83;;;6.90;99.90;;;;;;7372575;19;20062;-45
2022/11/15 00:03:01;;;;;;;26.52;20.50;;;7.00;99.90;;;;;;7372215;19;20497;-42
2022/11/15 00:05:46;;;;;;;25.55;20.65;;;7.10;99.90;;;;;;7372355;19;20039;-46
2022/11/15 00:08:32;;;;;;;26.10;19.30;;;7.20;99.90;;;;;;7372620;19;20018;-47
2022/11/15 00:11:17;;;;;;;27.08;19.60;;;7.30;99.90;;;;;;7369379;19;20038;-46
2022/11/15 00:14:03;;;;;;;26.45;18.60;;;7.30;99.90;;;;;;7370796;19;20050;-45
2022/11/15 00:16:48;;;;;;;24.17;18.88;;;7.40;99.90;;;;;;7372161;19;20014;-47
2022/11/15 00:19:33;;;;;;;25.08;19.00;;;7.50;99.90;;;;;;7367678;19;20022;-45
2022/11/15 00:22:18;;;;;;;25.58;17.13;;;7.50;99.90;;;;;;7371341;19;20433;-44
2022/11/15 00:25:03;;;;;;;23.50;16.35;;;7.50;99.90;;;;;;7364211;19;20403;-48
2022/11/15 00:27:47;;;;;;;21.20;17.65;;;7.60;99.90;;;;;;7365941;19;20508;-45
2022/11/15 00:30:32;;;;;;;22.10;17.80;;;7.60;99.90;;;;;;7372928;19;20019;-45
2022/11/15 00:33:17;;;;;;;21.75;17.30;;;7.60;99.90;;;;;;7370416;19;20025;-44
2022/11/15 00:36:11;;;;;;;22.23;16.33;;;7.60;99.90;;;;;;7371589;19;20022;-45
2022/11/15 00:38:56;;;;;;;24.67;19.00;;;7.70;99.90;;;;;;7368093;19;20050;-49
2022/11/15 00:41:41;;;;;;;24.15;17.95;;;7.60;99.90;;;;;;7371335;19;20109;-44
2022/11/15 00:44:26;;;;;;;22.75;17.05;;;7.60;99.90;;;;;;7370174;19;20088;-49
2022/11/15 00:47:10;;;;;;;23.05;18.05;;;7.70;99.90;;;;;;7367265;19;20477;-49
2022/11/15 00:49:57;;;;;;;23.65;17.67;;;7.70;99.90;;;;;;7372419;19;20050;-41
2022/11/15 00:52:43;;;;;;;25.98;18.98;;;7.70;99.90;;;;;;7377340;19;20015;-47
2022/11/15 00:55:28;;;;;;;24.05;18.05;;;7.70;99.90;;;;;;7375662;19;20036;-45
2022/11/15 00:58:13;;;;;;;26.38;17.92;;;7.70;99.90;;;;;;7372107;19;20022;-48
2022/11/15 01:01:12;;;;;;;24.65;17.90;;;7.70;99.90;;;;;;7376548;19;20025;-45
2022/11/15 01:03:57;;;;;;;24.27;17.50;;;7.70;99.90;;;;;;7374425;19;20520;-47
2022/11/15 01:06:42;;;;;;;24.98;18.02;;;7.70;99.90;;;;;;7379480;19;20018;-46
2022/11/15 01:09:27;;;;;;;27.92;19.33;;;7.70;99.90;;;;;;7375767;19;20018;-47
2022/11/15 01:12:11;;;;;;;26.52;19.00;;;7.70;99.90;;;;;;7372715;19;20026;-49
2022/11/15 01:14:56;;;;;;;27.65;18.55;;;7.80;99.90;;;;;;7378270;19;20035;-45
2022/11/15 01:17:41;;;;;;;27.80;19.15;;;7.80;99.90;;;;;;7378484;19;20026;-47
2022/11/15 01:20:25;;;;;;;26.08;17.98;;;7.80;99.90;;;;;;7373088;19;20018;-45
2022/11/15 01:23:10;;;;;;;28.63;19.00;;;7.80;99.90;;;;;;7373077;19;20844;-48
2022/11/15 01:26:00;;;;;;;26.50;18.88;;;7.80;99.90;;;;;;7371233;19;20378;-48
2022/11/15 01:28:44;;;;;;;25.48;17.73;;;7.80;99.90;;;;;;7374611;19;20398;-47
2022/11/15 01:31:29;;;;;;;28.27;18.38;;;7.80;99.90;;;;;;7369057;19;20015;-49
2022/11/15 01:34:15;;;;;;;27.80;19.70;;;7.80;99.90;;;;;;7372479;19;20022;-46
2022/11/15 01:37:00;;;;;;;28.17;19.60;;;7.80;99.90;;;;;;7374531;19;20019;-42
2022/11/15 01:39:45;;;;;;;25.63;18.20;;;7.80;99.90;;;;;;7375957;19;20096;-42
2022/11/15 01:42:29;;;;;;;27.17;18.40;;;7.80;99.90;;;;;;7370962;19;20441;-42
2022/11/15 01:45:15;;;;;;;28.02;19.15;;;7.80;99.90;;;;;;7376989;19;20482;-41
2022/11/15 01:48:00;;;;;;;27.23;19.08;;;7.80;99.90;;;;;;7373591;19;20050;-42
2022/11/15 01:50:46;;;;;;;25.30;18.77;;;7.80;99.90;;;;;;7374822;19;20344;-42
2022/11/15 01:53:33;;;;;;;26.17;18.60;;;7.90;99.90;;;;;;7372305;19;20019;-46
2022/11/15 01:56:26;;;;;;;27.02;19.60;;;7.90;99.90;;;;;;7370690;19;20022;-49
2022/11/15 01:59:12;;;;;;;27.33;19.25;;;7.80;99.90;;;;;;7375929;19;20044;-41
2022/11/15 02:01:56;;;;;;;26.92;18.00;;;7.90;99.90;;;;;;7369544;19;20020;-43
2022/11/15 02:04:44;;;;;;;27.08;17.08;;;7.90;99.90;;;;;;7368377;19;20019;-41
2022/11/15 02:07:31;;;;;;;26.42;17.95;;;7.90;99.90;;;;;;7364921;19;20025;-42
2022/11/15 02:10:22;;;;;;;26.23;18.73;;;7.90;99.90;;;;;;7370600;19;20018;-42
2022/11/15 02:13:06;;;;;;;26.52;18.20;;;7.90;99.90;;;;;;7365796;19;20795;-42
2022/11/15 02:16:31;;;;;;;24.25;17.33;;;8.00;99.90;;;;;;7368984;19;20422;-41
2022/11/15 02:19:42;;;;;;;26.45;18.08;;;8.00;99.90;;;;;;7373330;19;20485;-42
2022/11/15 02:22:45;;;;;;;25.52;16.77;;;8.00;99.90;;;;;;7368086;19;20023;-41
2022/11/15 02:25:56;;;;;;;25.95;17.48;;;8.00;99.90;;;;;;7366638;19;20099;-41
2022/11/15 02:29:11;;;;;;;28.35;18.20;;;8.00;99.90;;;;;;7372397;19;20155;-41
2022/11/15 02:32:10;;;;;;;29.63;17.95;;;8.00;99.90;;;;;;7368003;19;20110;-41
2022/11/15 02:34:56;;;;;;;29.58;18.42;;;8.10;99.90;;;;;;7368917;19;20054;-41
2022/11/15 02:38:02;;;;;;;26.65;18.33;;;8.10;99.90;;;;;;7370854;19;20053;-42
2022/11/15 02:41:02;;;;;;;32.40;19.35;;;8.10;99.90;;;;;;7371419;19;20018;-42
2022/11/15 02:43:59;;;;;;;36.03;19.92;;;8.10;99.90;;;;;;7367819;19;20014;-42
2022/11/15 02:49:58;;;;;;;36.28;21.38;;;8.10;99.90;;;;;;7371484;19;20500;-42
2022/11/15 02:52:49;;;;;;;36.60;21.52;;;8.20;99.90;;;;;;7372553;19;20034;-43
2022/11/15 02:55:41;;;;;;;37.22;21.10;;;8.20;99.90;;;;;;7370099;19;20015;-43
2022/11/15 02:58:45;;;;;;;39.17;21.58;;;8.20;99.90;;;;;;7374523;19;20854;-42
2022/11/15 03:01:35;;;;;;;32.78;20.15;;;8.20;99.90;;;;;;7373317;19;20011;-41
2022/11/15 03:04:20;;;;;;;42.78;22.90;;;8.20;99.90;;;;;;7363383;19;20015;-42
2022/11/15 03:07:18;;;;;;;43.13;23.45;;;8.20;99.90;;;;;;7367439;19;20025;-42
2022/11/15 03:10:10;;;;;;;40.83;22.98;;;8.20;99.90;;;;;;7370746;19;20023;-42
2022/11/15 03:13:19;;;;;;;37.53;24.25;;;8.20;99.90;;;;;;7371385;19;20022;-41
2022/11/15 03:16:13;;;;;;;37.92;22.90;;;8.20;99.90;;;;;;7369441;19;20411;-44
2022/11/15 03:19:17;;;;;;;41.45;26.38;;;8.20;99.90;;;;;;7369359;19;20471;-42
2022/11/15 03:22:06;;;;;;;38.55;22.23;;;8.20;99.90;;;;;;7370129;19;20466;-42
2022/11/15 03:25:00;;;;;;;43.55;25.08;;;8.30;99.90;;;;;;7367787;19;20384;-41
2022/11/15 03:27:50;;;;;;;44.95;24.42;;;8.30;99.90;;;;;;7360740;19;20058;-41
2022/11/15 03:30:37;;;;;;;48.00;25.73;;;8.30;99.90;;;;;;7367375;19;20022;-42
2022/11/15 03:33:22;;;;;;;44.72;24.17;;;8.30;99.90;;;;;;7367561;19;20476;-43
2022/11/15 03:36:07;;;;;;;41.38;23.85;;;8.30;99.90;;;;;;7365665;19;20018;-43
2022/11/15 03:38:56;;;;;;;47.45;25.55;;;8.30;99.90;;;;;;7366806;19;20022;-45
2022/11/15 03:42:07;;;;;;;42.80;24.05;;;8.30;99.90;;;;;;7369857;19;20425;-42
2022/11/15 03:45:10;;;;;;;46.28;24.40;;;8.30;99.90;;;;;;7367414;19;20097;-42
2022/11/15 03:48:07;;;;;;;46.50;26.92;;;8.30;99.90;;;;;;7365553;19;20466;-43
2022/11/15 03:50:53;;;;;;;48.30;27.52;;;8.40;99.90;;;;;;7364284;19;20018;-43
2022/11/15 03:53:40;;;;;;;50.17;28.95;;;8.40;99.90;;;;;;7369454;19;20413;-43
2022/11/15 03:56:25;;;;;;;48.78;28.75;;;8.40;99.90;;;;;;7364027;19;20022;-42
2022/11/15 03:59:09;;;;;;;54.78;26.13;;;8.40;99.90;;;;;;7370240;19;20073;-44
2022/11/15 04:01:54;;;;;;;57.00;30.35;;;8.40;99.90;;;;;;7363158;19;20014;-45
2022/11/15 04:04:39;;;;;;;50.00;28.13;;;8.40;99.90;;;;;;7367230;19;20026;-48
2022/11/15 04:07:24;;;;;;;57.28;30.35;;;8.50;99.90;;;;;;7368952;19;20014;-43
2022/11/15 04:10:13;;;;;;;55.85;29.80;;;8.50;99.90;;;;;;7368838;19;20082;-45
2022/11/15 04:12:57;;;;;;;57.55;30.38;;;8.50;99.90;;;;;;7367176;19;20022;-46
2022/11/15 04:15:45;;;;;;;55.55;29.05;;;8.50;99.90;;;;;;7366249;19;20018;-48
2022/11/15 04:18:30;;;;;;;58.22;29.17;;;8.60;99.90;;;;;;7370346;19;20019;-41
2022/11/15 04:24:19;;;;;;;56.88;30.08;;;8.60;99.90;;;;;;7366441;19;20023;-41
2022/11/15 04:27:03;;;;;;;60.58;32.03;;;8.70;99.90;;;;;;7375257;19;20497;-42
2022/11/15 04:29:48;;;;;;;56.92;32.13;;;8.70;99.90;;;;;;7380218;19;20022;-42
2022/11/15 04:32:33;;;;;;;56.90;31.38;;;8.70;99.90;;;;;;7375225;19;20029;-43
2022/11/15 04:35:18;;;;;;;58.53;32.20;;;8.70;99.90;;;;;;7380868;19;20609;-43
2022/11/15 04:38:04;;;;;;;57.67;30.75;;;8.80;99.90;;;;;;7380375;19;20089;-43
2022/11/15 04:40:49;;;;;;;63.78;31.63;;;8.80;99.90;;;;;;7380904;19;20105;-41
2022/11/15 04:43:33;;;;;;;67.15;33.40;;;8.80;99.90;;;;;;7376766;19;20051;-42
2022/11/15 04:46:18;;;;;;;64.68;34.88;;;8.90;99.90;;;;;;7380098;19;20505;-41
2022/11/15 04:49:02;;;;;;;64.72;34.05;;;8.90;99.90;;;;;;7380572;19;20029;-42
2022/11/15 04:51:47;;;;;;;60.95;34.60;;;9.00;99.90;;;;;;7379391;19;20026;-44
2022/11/15 04:54:33;;;;;;;69.88;33.85;;;9.00;99.90;;;;;;7379352;19;20466;-41
2022/11/15 04:57:18;;;;;;;65.28;32.65;;;9.10;99.90;;;;;;7376966;19;20565;-46
2022/11/15 05:00:09;;;;;;;65.07;35.33;;;9.10;99.90;;;;;;7379169;19;20515;-43
2022/11/15 05:05:58;;;;;;;62.58;33.92;;;9.20;99.90;;;;;;7379581;19;20021;-42
2022/11/15 05:08:43;;;;;;;72.65;36.22;;;9.30;99.90;;;;;;7380145;19;20408;-44
2022/11/15 05:11:28;;;;;;;58.97;35.05;;;9.30;99.90;;;;;;7379873;19;20022;-43
2022/11/15 05:14:13;;;;;;;62.63;32.90;;;9.30;99.90;;;;;;7380508;19;20399;-44
2022/11/15 05:16:58;;;;;;;63.90;36.55;;;9.30;99.90;;;;;;7380045;19;20025;-43
2022/11/15 05:19:44;;;;;;;56.33;32.67;;;9.40;99.90;;;;;;7381302;19;20541;-43
2022/11/15 05:22:28;;;;;;;56.85;32.30;;;9.40;99.90;;;;;;7380861;19;20023;-42
2022/11/15 05:25:14;;;;;;;51.45;31.00;;;9.40;99.90;;;;;;7379871;19;20073;-47
2022/11/15 05:27:58;;;;;;;50.10;31.73;;;9.40;99.90;;;;;;7378684;19;20117;-41
2022/11/15 05:30:43;;;;;;;46.38;30.88;;;9.50;99.90;;;;;;7377401;19;20022;-45
2022/11/15 05:33:28;;;;;;;48.92;31.40;;;9.50;99.90;;;;;;7375353;19;20409;-47
2022/11/15 05:36:34;;;;;;;45.92;30.60;;;9.50;99.90;;;;;;7367596;19;20018;-48
2022/11/15 05:39:19;;;;;;;50.17;30.33;;;9.60;99.90;;;;;;7360994;19;20400;-48
2022/11/15 05:42:11;;;;;;;45.38;28.90;;;9.60;99.90;;;;;;7358969;19;20055;-52
2022/11/15 05:44:56;;;;;;;;;;;9.60;99.90;;;;;;7363115;19;20018;-45
2022/11/15 05:47:42;;;;;;;44.90;28.35;;;9.70;99.90;;;;;;7374954;19;19922;-48
2022/11/15 05:50:28;;;;;;;50.30;29.17;;;9.70;99.90;;;;;;7369189;19;20517;-50
2022/11/15 05:53:17;;;;;;;43.22;28.77;;;9.80;99.90;;;;;;7372051;19;20954;-47
2022/11/15 05:56:05;;;;;;;43.15;28.10;;;9.80;99.90;;;;;;7374469;19;20018;-45
2022/11/15 05:58:53;;;;;;;47.05;28.60;;;9.80;99.90;;;;;;7373577;19;20393;-46
2022/11/15 06:01:39;;;;;;;44.10;29.60;;;9.90;99.90;;;;;;7375552;19;20553;-46
2022/11/15 06:04:25;;;;;;;52.80;32.55;;;9.90;99.90;;;;;;7371126;19;20480;-46
2022/11/15 06:07:13;;;;;;;44.47;26.92;;;10.00;99.90;;;;;;7374527;19;20043;-45
2022/11/15 06:09:58;;;;;;;41.47;25.45;;;10.00;99.90;;;;;;7369878;19;20024;-46
2022/11/15 06:12:42;;;;;;;39.58;27.40;;;10.10;99.90;;;;;;7374651;19;20388;-47
2022/11/15 06:15:28;;;;;;;48.08;27.73;;;10.10;99.90;;;;;;7370424;19;20037;-46
2022/11/15 06:18:13;;;;;;;45.10;28.48;;;10.10;99.90;;;;;;7374316;19;20031;-46
2022/11/15 06:21:00;;;;;;;44.70;29.08;;;10.10;99.90;;;;;;7368622;19;20396;-46
2022/11/15 06:23:44;;;;;;;45.10;27.23;;;10.20;99.90;;;;;;7374076;19;20025;-45
2022/11/15 06:26:29;;;;;;;44.15;28.17;;;10.20;99.90;;;;;;7366687;19;20380;-48
2022/11/15 06:29:15;;;;;;;40.05;26.10;;;10.30;99.90;;;;;;7369675;19;20049;-45
2022/11/15 06:32:00;;;;;;;42.40;26.75;;;10.30;99.90;;;;;;7365964;19;20029;-49
2022/11/15 06:34:45;;;;;;;41.67;25.60;;;10.40;99.90;;;;;;7368986;19;20481;-45
2022/11/15 06:37:29;;;;;;;37.97;26.58;;;10.40;99.90;;;;;;7374475;19;20023;-48
2022/11/15 06:40:15;;;;;;;37.15;24.33;;;10.40;99.90;;;;;;7372481;19;20018;-46
2022/11/15 06:43:00;;;;;;;35.08;23.95;;;10.40;99.90;;;;;;7370767;19;20454;-47
2022/11/15 06:45:44;;;;;;;37.03;25.88;;;10.40;99.90;;;;;;7372690;19;20025;-48
2022/11/15 06:48:31;;;;;;;34.40;25.75;;;10.50;99.90;;;;;;7370649;19;20010;-48
2022/11/15 06:51:15;;;;;;;35.85;23.10;;;10.50;99.90;;;;;;7369661;19;20011;-48
2022/11/15 06:54:00;;;;;;;31.23;21.75;;;10.50;99.90;;;;;;7372925;19;20592;-45
2022/11/15 06:56:46;;;;;;;33.85;23.95;;;10.50;99.90;;;;;;7370666;19;20022;-45
2022/11/15 06:59:31;;;;;;;34.58;23.13;;;10.50;99.90;;;;;;7369037;19;20019;-48
2022/11/15 07:02:16;;;;;;;31.45;24.00;;;10.50;99.90;;;;;;7369972;19;20482;-49
2022/11/15 07:05:01;;;;;;;35.28;23.55;;;10.50;99.90;;;;;;7368656;19;20022;-48
2022/11/15 07:07:52;;;;;;;31.80;22.65;;;10.50;99.90;;;;;;7370591;19;20010;-50
2022/11/15 07:10:36;;;;;;;31.88;23.50;;;10.60;99.90;;;;;;7363459;19;20018;-45
2022/11/15 07:13:25;;;;;;;31.88;22.70;;;10.60;99.90;;;;;;7367856;19;20026;-46
2022/11/15 07:16:11;;;;;;;32.13;22.02;;;10.60;99.90;;;;;;7368981;19;20021;-43
2022/11/15 07:18:56;;;;;;;32.30;22.80;;;10.60;99.90;;;;;;7371933;19;20078;-43
2022/11/15 07:22:01;;;;;;;30.95;21.90;;;10.60;99.90;;;;;;7368973;19;20122;-41
2022/11/15 07:24:45;;;;;;;29.23;21.58;;;10.70;99.90;;;;;;7366583;19;20070;-42
2022/11/15 07:27:31;;;;;;;27.98;22.05;;;10.70;99.90;;;;;;7366666;19;20023;-42
2022/11/15 07:30:16;;;;;;;26.75;20.92;;;10.70;99.90;;;;;;7368980;19;20018;-48
2022/11/15 07:33:01;;;;;;;28.90;21.40;;;10.70;99.90;;;;;;7366269;19;20025;-48
2022/11/15 07:35:49;;;;;;;29.42;21.85;;;10.70;99.90;;;;;;7369251;19;20026;-43
2022/11/15 07:38:35;;;;;;;29.05;21.40;;;10.70;99.90;;;;;;7371774;19;20647;-49
2022/11/15 07:41:20;;;;;;;29.38;22.33;;;10.80;99.90;;;;;;7368108;19;20593;-49
2022/11/15 07:44:05;;;;;;;24.70;19.05;;;10.80;99.90;;;;;;7368424;19;20021;-48
2022/11/15 07:46:50;;;;;;;26.77;20.38;;;10.70;99.90;;;;;;7367606;19;20022;-41
2022/11/15 07:49:37;;;;;;;28.35;20.75;;;10.80;99.90;;;;;;7369056;19;20028;-49
2022/11/15 07:52:22;;;;;;;27.13;21.75;;;10.80;99.90;;;;;;7370038;19;20344;-44
2022/11/15 07:55:07;;;;;;;29.33;20.98;;;10.90;99.90;;;;;;7370135;19;20026;-44
2022/11/15 07:57:53;;;;;;;27.70;20.63;;;10.90;99.90;;;;;;7368404;19;20447;-42
2022/11/15 08:00:38;;;;;;;27.67;22.67;;;10.90;99.90;;;;;;7372810;19;20022;-41
2022/11/15 08:03:23;;;;;;;26.42;20.02;;;11.00;99.90;;;;;;7367546;19;20161;-42
2022/11/15 08:06:08;;;;;;;23.40;19.92;;;11.00;99.90;;;;;;7366670;19;20014;-41
2022/11/15 08:08:52;;;;;;;25.48;20.33;;;11.00;99.90;;;;;;7367463;19;20122;-44
2022/11/15 08:11:37;;;;;;;26.95;20.85;;;11.10;99.90;;;;;;7370623;19;20018;-41
2022/11/15 08:14:22;;;;;;;27.25;20.15;;;11.10;99.90;;;;;;7367177;19;20015;-42
2022/11/15 08:17:07;;;;;;;26.90;20.50;;;11.10;99.90;;;;;;7367885;19;20019;-45
2022/11/15 08:19:52;;;;;;;26.95;19.83;;;11.20;99.90;;;;;;7366431;19;20025;-42
2022/11/15 08:22:37;;;;;;;24.88;20.73;;;11.20;99.90;;;;;;7366606;19;20010;-43
2022/11/15 08:25:22;;;;;;;26.70;20.17;;;11.30;99.90;;;;;;7368312;19;20018;-50
2022/11/15 08:28:10;;;;;;;24.10;19.52;;;11.30;99.90;;;;;;7366234;19;20014;-45
2022/11/15 08:30:55;;;;;;;25.45;20.52;;;11.40;99.90;;;;;;7366339;19;20031;-49
2022/11/15 08:33:40;;;;;;;28.50;21.27;;;11.40;99.90;;;;;;7368265;19;20025;-41
2022/11/15 08:36:25;;;;;;;23.38;19.67;;;11.40;99.90;;;;;;7369739;19;20576;-45
2022/11/15 08:39:12;;;;;;;25.50;19.58;;;11.50;99.90;;;;;;7367440;19;20616;-48
2022/11/15 08:41:57;;;;;;;26.17;20.58;;;11.50;99.90;;;;;;7364490;19;20018;-45
2022/11/15 08:44:42;;;;;;;25.85;19.67;;;11.50;99.90;;;;;;7361668;19;20019;-49
2022/11/15 08:47:27;;;;;;;27.80;21.40;;;11.50;99.90;;;;;;7363233;19;20527;-50
2022/11/15 08:50:12;;;;;;;24.77;20.08;;;11.50;99.90;;;;;;7370153;19;20510;-51
2022/11/15 08:52:57;;;;;;;27.48;21.25;;;11.60;99.90;;;;;;7365471;19;20382;-49
2022/11/15 08:55:42;;;;;;;25.17;20.17;;;11.60;99.90;;;;;;7363049;19;20355;-46
2022/11/15 08:58:28;;;;;;;26.25;21.50;;;11.60;99.90;;;;;;7358659;19;20521;-49
2022/11/15 09:01:19;;;;;;;27.38;20.77;;;11.70;99.90;;;;;;7359697;19;20510;-42
2022/11/15 09:04:03;;;;;;;30.92;21.30;;;11.70;99.90;;;;;;7360161;19;20026;-46
2022/11/15 09:06:49;;;;;;;26.52;20.83;;;11.70;99.90;;;;;;7363087;19;20585;-50
2022/11/15 09:09:34;;;;;;;23.98;19.67;;;11.80;99.90;;;;;;7366170;19;20018;-50
2022/11/15 09:12:19;;;;;;;34.47;27.27;;;11.80;99.90;;;;;;7363864;19;20438;-46
2022/11/15 09:15:05;;;;;;;26.83;21.30;;;11.90;99.90;;;;;;7371401;19;22135;-46
2022/11/15 09:17:50;;;;;;;24.63;20.10;;;12.00;99.90;;;;;;7374353;19;20824;-50
2022/11/15 09:20:35;;;;;;;25.50;21.13;;;12.10;99.90;;;;;;7370560;19;20664;-49
2022/11/15 09:23:20;;;;;;;24.95;19.35;;;12.10;99.90;;;;;;7374344;19;20018;-49
2022/11/15 09:26:06;;;;;;;23.25;19.50;;;12.10;99.90;;;;;;7371090;19;20022;-48
2022/11/15 09:28:51;;;;;;;24.75;19.42;;;12.10;99.90;;;;;;7363820;19;20028;-49
2022/11/15 09:31:36;;;;;;;21.20;19.00;;;12.00;99.90;;;;;;7373680;19;20029;-41
2022/11/15 09:34:21;;;;;;;27.88;21.55;;;12.00;99.90;;;;;;7374733;19;20884;-43
2022/11/15 09:37:06;;;;;;;25.25;19.73;;;12.00;99.90;;;;;;7370386;19;20385;-43
2022/11/15 09:39:50;;;;;;;20.88;18.02;;;12.00;99.90;;;;;;7370813;19;20019;-43
2022/11/15 09:42:47;;;;;;;19.23;16.83;;;12.00;99.90;;;;;;7368242;19;20050;-46
2022/11/15 09:45:51;;;;;;;21.88;17.33;;;12.00;99.90;;;;;;7368619;19;20019;-49
2022/11/15 09:48:52;;;;;;;21.55;16.40;;;12.10;99.90;;;;;;7371952;19;20099;-43
2022/11/15 09:51:48;;;;;;;18.40;16.08;;;12.10;99.90;;;;;;7370587;19;20613;-48
2022/11/15 09:54:31;;;;;;;19.92;16.38;;;12.10;99.90;;;;;;7372689;19;20081;-47
2022/11/15 09:57:09;;;;;;;18.45;16.55;;;12.10;99.90;;;;;;7367647;19;20600;-49
2022/11/15 10:00:01;;;;;;;18.80;15.07;;;12.10;99.90;;;;;;7369434;19;20014;-49
2022/11/15 10:02:51;;;;;;;18.30;16.17;;;12.00;99.90;;;;;;7366704;19;20010;-49
2022/11/15 10:05:21;;;;;;;17.48;15.68;;;12.00;99.90;;;;;;7367683;19;20006;-50
2022/11/15 10:08:16;;;;;;;18.33;15.50;;;12.00;99.90;;;;;;7370455;19;20014;-48
2022/11/15 10:10:49;;;;;;;17.48;15.50;;;12.00;99.90;;;;;;7373096;19;20110;-50
2022/11/15 10:13:26;;;;;;;21.27;16.42;;;11.90;99.90;;;;;;7368487;19;20026;-46
2022/11/15 10:15:58;;;;;;;20.85;15.70;;;12.00;99.90;;;;;;7374327;19;20112;-48
2022/11/15 10:18:42;;;;;;;19.88;16.63;;;12.00;99.90;;;;;;7368121;19;20022;-49
2022/11/15 10:21:23;;;;;;;20.10;16.33;;;12.10;99.90;;;;;;7372191;19;20029;-48
2022/11/15 10:23:52;;;;;;;19.48;15.88;;;12.20;99.90;;;;;;7371519;19;20466;-48
2022/11/15 10:26:19;;;;;;;18.58;16.45;;;12.20;99.90;;;;;;7366162;19;20490;-46
2022/11/15 10:28:45;;;;;;;19.35;17.27;;;12.30;99.90;;;;;;7368146;19;20082;-46
2022/11/15 10:31:28;;;;;;;20.60;18.23;;;12.40;99.90;;;;;;7367571;19;20445;-48
2022/11/15 10:34:15;;;;;;;19.77;15.88;;;12.50;99.90;;;;;;7369115;19;20019;-47
2022/11/15 10:37:01;;;;;;;16.08;14.48;;;12.60;99.90;;;;;;7364985;19;20025;-49
2022/11/15 10:39:28;;;;;;;16.15;13.38;;;12.70;99.90;;;;;;7362846;19;20049;-46
2022/11/15 10:41:55;;;;;;;15.88;14.18;;;12.80;99.90;;;;;;7361822;19;20015;-47
2022/11/15 10:44:26;;;;;;;13.15;11.50;;;12.80;99.90;;;;;;7361272;19;20973;-48
2022/11/15 10:46:55;;;;;;;13.83;12.40;;;12.80;99.90;;;;;;7365325;19;20050;-49
2022/11/15 10:49:25;;;;;;;14.43;12.43;;;12.90;99.90;;;;;;7364008;19;20573;-47
2022/11/15 10:51:59;;;;;;;12.57;11.30;;;12.90;99.90;;;;;;7365310;19;20046;-46
2022/11/15 10:54:37;;;;;;;13.65;11.15;;;12.90;99.90;;;;;;7365072;19;20473;-46
2022/11/15 10:57:28;;;;;;;11.75;10.43;;;13.00;99.90;;;;;;7367617;19;20019;-41
2022/11/15 10:59:59;;;;;;;11.00;9.82;;;13.10;99.90;;;;;;7367765;19;20446;-42
2022/11/15 11:02:30;;;;;;;11.77;8.95;;;13.40;99.90;;;;;;7355263;19;20805;-44
2022/11/15 11:04:57;;;;;;;12.80;9.48;;;13.80;99.90;;;;;;7358209;19;20018;-47
2022/11/15 11:07:32;;;;;;;9.60;7.88;;;14.40;99.90;;;;;;7359647;19;20386;-44
2022/11/15 11:10:20;;;;;;;8.85;7.43;;;15.00;99.90;;;;;;7362738;19;20449;-44
2022/11/15 11:12:47;;;;;;;8.30;6.70;;;15.20;99.90;;;;;;7364790;19;20025;-46
2022/11/15 11:15:15;;;;;;;6.93;5.55;;;15.70;99.90;;;;;;7364206;19;20018;-43
2022/11/15 11:18:10;;;;;;;8.93;5.85;;;15.80;99.90;;;;;;7358822;19;20098;-42
2022/11/15 11:20:46;;;;;;;12.25;8.32;;;15.50;99.90;;;;;;7363509;19;20022;-42
2022/11/15 11:23:18;;;;;;;15.32;11.00;;;15.90;99.90;;;;;;7363490;19;20035;-46
2022/11/15 11:25:44;;;;;;;7.13;5.07;;;15.80;99.90;;;;;;7362776;19;20112;-46
2022/11/15 11:28:33;;;;;;;7.30;5.35;;;15.80;99.90;;;;;;7360896;19;20018;-45
2022/11/15 11:31:24;;;;;;;10.40;7.55;;;15.70;99.90;;;;;;7359896;19;20026;-43
2022/11/15 11:34:17;;;;;;;9.90;5.32;;;15.60;99.90;;;;;;7362460;19;20022;-47
2022/11/15 11:36:55;;;;;;;7.15;4.60;;;15.50;99.90;;;;;;7366315;19;20577;-42
2022/11/15 11:39:50;;;;;;;8.77;4.88;;;15.70;99.90;;;;;;7366897;19;20425;-42
2022/11/15 11:42:35;;;;;;;6.30;4.72;;;16.20;99.90;;;;;;7364516;19;20078;-45
2022/11/15 11:45:38;;;;;;;8.95;5.38;;;16.10;99.90;;;;;;7362869;19;20023;-43
2022/11/15 11:48:13;;;;;;;6.13;4.88;;;15.70;99.90;;;;;;7367289;19;20473;-42
2022/11/15 11:50:44;;;;;;;7.15;4.70;;;15.40;99.90;;;;;;7362960;19;20018;-43
2022/11/15 11:53:22;;;;;;;6.30;4.80;;;14.90;99.90;;;;;;7368563;19;20320;-42
2022/11/15 11:56:01;;;;;;;7.90;5.45;;;14.60;99.90;;;;;;7367497;19;20500;-48
2022/11/15 11:58:42;;;;;;;6.28;5.28;;;14.30;99.90;;;;;;7368017;19;20041;-50
2022/11/15 12:01:22;;;;;;;7.47;4.90;;;14.10;99.90;;;;;;7369036;19;20019;-42
2022/11/15 12:03:59;;;;;;;9.45;5.10;;;13.80;99.90;;;;;;7365067;19;20081;-42
2022/11/15 12:06:37;;;;;;;9.48;6.30;;;13.70;99.90;;;;;;7365262;19;20030;-42
2022/11/15 12:09:59;;;;;;;7.28;4.93;;;13.80;99.90;;;;;;7366759;19;20439;-42
2022/11/15 12:12:36;;;;;;;8.27;4.68;;;14.20;99.90;;;;;;7366013;19;20018;-43
2022/11/15 12:15:08;;;;;;;8.98;5.78;;;14.90;99.90;;;;;;7369694;19;20033;-49
2022/11/15 12:17:35;;;;;;;7.47;4.43;;;15.80;99.90;;;;;;7367948;19;20461;-49
2022/11/15 12:20:14;;;;;;;9.50;5.78;;;16.10;99.90;;;;;;7369017;19;20018;-47
2022/11/15 12:22:59;;;;;;;6.00;4.35;;;16.90;99.90;;;;;;7367418;19;20022;-48
2022/11/15 12:25:40;;;;;;;7.28;4.72;;;17.30;99.90;;;;;;7365224;19;20709;-48
2022/11/15 12:28:42;;;;;;;5.40;3.42;;;17.80;99.90;;;;;;7364120;19;20466;-46
2022/11/15 12:31:37;;;;;;;5.60;3.17;;;18.40;99.90;;;;;;7363827;19;20337;-46
2022/11/15 12:34:13;;;;;;;5.80;3.97;;;18.40;99.90;;;;;;7365273;19;20014;-47
2022/11/15 12:36:46;;;;;;;8.48;4.22;;;18.20;99.90;;;;;;7366291;19;20022;-49
2022/11/15 12:39:15;;;;;;;6.45;3.28;;;18.30;99.90;;;;;;7363593;19;20423;-50
2022/11/15 12:42:04;;;;;;;8.52;4.60;;;17.90;99.90;;;;;;7343610;19;20518;-48
2022/11/15 12:44:30;;;;;;;5.90;2.65;;;18.30;99.90;;;;;;7359838;19;20119;-51
2022/11/15 12:46:57;;;;;;;8.23;4.55;;;18.70;99.90;;;;;;7364465;19;20018;-48
2022/11/15 12:49:23;;;;;;;5.20;3.58;;;18.50;99.90;;;;;;7372475;19;20018;-48
2022/11/15 12:51:51;;;;;;;4.43;2.67;;;17.50;99.90;;;;;;7374034;19;20018;-49
2022/11/15 12:54:24;;;;;;;5.10;2.63;;;16.80;99.90;;;;;;7369925;19;20082;-47
2022/11/15 12:57:02;;;;;;;5.20;2.85;;;16.20;99.90;;;;;;7372453;19;20018;-47
2022/11/15 13:00:02;;;;;;;4.55;3.10;;;16.30;99.90;;;;;;7372268;19;20022;-48
2022/11/15 13:02:45;;;;;;;5.72;3.05;;;16.50;99.90;;;;;;7369879;19;20018;-47
2022/11/15 13:05:15;;;;;;;3.70;2.00;;;16.70;99.90;;;;;;7370053;19;20515;-50
2022/11/15 13:07:41;;;;;;;6.22;3.05;;;17.10;99.90;;;;;;7368667;19;20606;-49
2022/11/15 13:10:13;;;;;;;2.90;1.67;;;16.90;99.90;;;;;;7371629;19;20082;-47
2022/11/15 13:12:45;;;;;;;4.32;2.28;;;17.40;99.90;;;;;;7369333;19;20022;-48
2022/11/15 13:15:12;;;;;;;5.07;2.80;;;17.70;99.90;;;;;;7370298;19;20050;-47
2022/11/15 13:17:43;;;;;;;4.47;1.80;;;17.20;99.90;;;;;;7375530;19;20115;-47
2022/11/15 13:20:14;;;;;;;4.78;2.50;;;17.20;99.90;;;;;;7370025;19;20035;-46
2022/11/15 13:22:52;;;;;;;4.45;1.20;;;16.60;99.90;;;;;;7367833;19;20019;-48
2022/11/15 13:25:22;;;;;;;3.47;1.88;;;16.60;99.90;;;;;;7369439;19;20037;-46
2022/11/15 13:27:51;;;;;;;3.72;1.35;;;16.40;99.90;;;;;;7368021;19;20477;-48
2022/11/15 13:30:29;;;;;;;4.13;2.60;;;16.20;99.90;;;;;;7368855;19;20362;-45
2022/11/15 13:33:00;;;;;;;2.60;1.30;;;16.10;99.90;;;;;;7369248;19;20609;-45
2022/11/15 13:35:29;;;;;;;4.30;1.67;;;16.10;99.90;;;;;;7373271;19;20425;-47
2022/11/15 13:37:57;;;;;;;4.10;1.90;;;16.40;99.90;;;;;;7367665;19;20273;-45
2022/11/15 13:40:32;;;;;;;6.38;2.45;;;16.90;99.90;;;;;;7369926;19;20768;-49
2022/11/15 13:42:59;;;;;;;3.33;1.52;;;17.00;99.90;;;;;;7368170;19;20370;-48
2022/11/15 13:45:26;;;;;;;1.90;1.45;;;17.30;99.90;;;;;;7367428;19;20037;-48
2022/11/15 13:47:57;;;;;;;3.70;1.40;;;17.10;99.90;;;;;;7366541;19;20035;-46
2022/11/15 13:50:29;;;;;;;6.10;3.23;;;17.20;99.90;;;;;;7369810;19;20018;-46
2022/11/15 13:53:00;;;;;;;4.20;3.00;;;16.80;99.90;;;;;;7364131;19;20840;-45
2022/11/15 13:55:29;;;;;;;1.67;0.90;;;16.80;99.90;;;;;;7368529;19;20022;-48
2022/11/15 13:58:05;;;;;;;2.47;0.90;;;16.60;99.90;;;;;;7364973;19;20022;-49
2022/11/15 14:00:38;;;;;;;2.38;0.98;;;16.30;99.90;;;;;;7369165;19;20550;-47
2022/11/15 14:03:25;;;;;;;3.38;1.10;;;16.10;99.90;;;;;;7363559;19;20018;-47
2022/11/15 14:06:16;;;;;;;2.47;1.00;;;16.00;99.90;;;;;;7367646;19;20019;-45
2022/11/15 14:08:59;;;;;;;2.83;0.90;;;16.10;99.90;;;;;;7369601;19;20402;-46
2022/11/15 14:11:25;;;;;;;1.60;1.00;;;16.00;99.90;;;;;;7361774;19;20018;-47